Time;durP1;ratioP1;P1;durP2;ratioP2;P2;SDS_P1;SDS_P2;PMS_P1;PMS_P2;Temp;Humidity;BMP_temperature;BMP_pressure;BME280_temperature;BME280_humidity;BME280_pressure;Samples;Min_cycle;Max_cycle;Signal;HPM_P1;HPM_P2
2021/09/18 00:04:27;;;;;;;2.37;1.00;;;;;;;;;;10253579;28;20521;-62
2021/09/18 00:09:24;;;;;;;2.17;1.10;;;;;;;;;;10234246;28;20681;-62
2021/09/18 00:14:22;;;;;;;1.70;0.90;;;;;;;;;;10244547;28;20030;-62
2021/09/18 00:19:20;;;;;;;1.20;0.67;;;;;;;;;;10242707;28;20033;-62
2021/09/18 00:24:17;;;;;;;0.90;0.83;;;;;;;;;;10248107;28;20041;-62
2021/09/18 00:29:16;;;;;;;1.10;0.80;;;;;;;;;;10242151;28;20143;-62
2021/09/18 00:34:13;;;;;;;1.13;1.02;;;;;;;;;;10225348;28;20422;-62
2021/09/18 00:39:10;;;;;;;2.10;0.60;;;;;;;;;;10252946;28;20038;-62
2021/09/18 00:44:14;;;;;;;1.77;0.50;;;;;;;;;;10262109;28;20041;-63
2021/09/18 00:49:12;;;;;;;1.50;0.85;;;;;;;;;;10252156;28;20061;-62
2021/09/18 00:54:11;;;;;;;0.87;0.60;;;;;;;;;;10267750;28;20144;-62
2021/09/18 00:59:09;;;;;;;0.95;0.82;;;;;;;;;;10266726;28;20037;-62
2021/09/18 01:04:08;;;;;;;2.47;0.95;;;;;;;;;;10252224;28;20033;-61
2021/09/18 01:09:06;;;;;;;0.30;0.20;;;;;;;;;;10218800;28;20110;-62
2021/09/18 01:14:03;;;;;;;3.63;0.50;;;;;;;;;;10257044;28;20076;-62
2021/09/18 01:19:01;;;;;;;0.20;0.20;;;;;;;;;;10270477;28;20556;-62
2021/09/18 01:24:00;;;;;;;0.67;0.50;;;;;;;;;;10247067;28;20042;-62
2021/09/18 01:28:58;;;;;;;0.65;0.65;;;;;;;;;;10258801;28;20045;-63
2021/09/18 01:33:55;;;;;;;2.03;0.90;;;;;;;;;;10250943;28;20037;-62
2021/09/18 01:38:54;;;;;;;0.60;0.60;;;;;;;;;;10256805;28;20029;-61
2021/09/18 01:43:52;;;;;;;1.90;1.38;;;;;;;;;;10267373;28;20041;-62
2021/09/18 01:48:49;;;;;;;1.90;1.07;;;;;;;;;;10261090;28;20419;-62
2021/09/18 01:53:47;;;;;;;1.80;0.90;;;;;;;;;;10269664;28;20124;-62
2021/09/18 01:58:44;;;;;;;2.03;1.43;;;;;;;;;;10260450;28;20083;-62
2021/09/18 02:03:42;;;;;;;0.20;0.20;;;;;;;;;;10265028;28;20033;-62
2021/09/18 02:08:39;;;;;;;0.30;0.20;;;;;;;;;;10287777;28;20179;-62
2021/09/18 02:13:37;;;;;;;0.27;0.27;;;;;;;;;;10270542;28;20052;-63
2021/09/18 02:18:34;;;;;;;0.10;0.10;;;;;;;;;;10284852;28;20041;-62
2021/09/18 02:23:31;;;;;;;0.10;0.10;;;;;;;;;;10281570;28;20147;-61
2021/09/18 02:28:29;;;;;;;1.40;0.27;;;;;;;;;;10270887;28;20513;-62
2021/09/18 02:33:26;;;;;;;0.90;0.13;;;;;;;;;;10308780;28;20594;-62
2021/09/18 02:38:24;;;;;;;0.10;0.10;;;;;;;;;;10277037;28;20068;-62
2021/09/18 02:43:22;;;;;;;0.13;0.13;;;;;;;;;;10273166;28;20061;-62
2021/09/18 02:48:19;;;;;;;0.10;0.10;;;;;;;;;;10280978;28;20063;-62
2021/09/18 02:53:17;;;;;;;0.07;0.07;;;;;;;;;;10288406;28;20198;-62
2021/09/18 02:58:14;;;;;;;0.50;0.50;;;;;;;;;;10312938;28;20045;-63
2021/09/18 03:03:12;;;;;;;1.50;0.87;;;;;;;;;;10294607;28;20124;-62
2021/09/18 03:08:09;;;;;;;1.20;0.90;;;;;;;;;;10289287;28;20079;-62
2021/09/18 03:13:07;;;;;;;1.00;0.90;;;;;;;;;;10295807;28;20124;-63
2021/09/18 03:18:04;;;;;;;1.63;1.50;;;;;;;;;;10298533;28;20029;-63
2021/09/18 03:23:02;;;;;;;1.33;1.10;;;;;;;;;;10294375;28;20045;-63
2021/09/18 03:28:00;;;;;;;1.40;1.30;;;;;;;;;;10328548;28;20049;-63
2021/09/18 03:32:57;;;;;;;1.60;1.50;;;;;;;;;;10298846;28;20436;-63
2021/09/18 03:37:55;;;;;;;2.43;1.73;;;;;;;;;;10274057;28;20103;-62
2021/09/18 03:42:52;;;;;;;2.17;1.83;;;;;;;;;;10291922;28;20041;-63
2021/09/18 03:47:50;;;;;;;3.17;1.60;;;;;;;;;;10288847;28;20052;-63
2021/09/18 03:52:47;;;;;;;1.63;1.53;;;;;;;;;;10292621;28;20045;-62
2021/09/18 03:57:45;;;;;;;1.73;1.50;;;;;;;;;;10305042;28;20037;-62
2021/09/18 04:02:42;;;;;;;3.63;1.80;;;;;;;;;;10309245;28;20056;-62
2021/09/18 04:07:39;;;;;;;3.07;1.70;;;;;;;;;;10309100;28;20128;-62
2021/09/18 04:12:37;;;;;;;6.23;2.40;;;;;;;;;;10300290;28;20140;-61
2021/09/18 04:17:35;;;;;;;4.60;2.30;;;;;;;;;;10294052;28;20107;-62
2021/09/18 04:22:32;;;;;;;2.47;1.93;;;;;;;;;;10297881;28;20140;-62
2021/09/18 04:27:29;;;;;;;2.13;1.93;;;;;;;;;;10300831;28;20049;-63
2021/09/18 04:32:27;;;;;;;2.60;2.40;;;;;;;;;;10277942;28;20627;-62
2021/09/18 04:37:24;;;;;;;3.27;2.73;;;;;;;;;;10312414;28;20025;-62
2021/09/18 04:42:22;;;;;;;3.40;2.67;;;;;;;;;;10295967;28;20462;-63
2021/09/18 04:47:19;;;;;;;4.90;2.83;;;;;;;;;;10271962;28;20044;-63
2021/09/18 04:52:16;;;;;;;3.80;3.10;;;;;;;;;;10315488;28;20037;-64
2021/09/18 04:57:14;;;;;;;4.97;3.20;;;;;;;;;;10309623;28;20030;-62
2021/09/18 05:02:11;;;;;;;2.80;2.53;;;;;;;;;;10338620;28;20048;-63
2021/09/18 05:07:09;;;;;;;6.80;2.90;;;;;;;;;;10306797;28;20041;-62
2021/09/18 05:12:07;;;;;;;4.10;3.50;;;;;;;;;;10290792;28;20053;-62
2021/09/18 05:17:04;;;;;;;6.07;4.10;;;;;;;;;;10305421;28;20444;-63
2021/09/18 05:22:02;;;;;;;4.67;3.30;;;;;;;;;;10292371;28;20075;-63
2021/09/18 05:26:59;;;;;;;6.00;3.60;;;;;;;;;;10309947;28;20036;-62
2021/09/18 05:31:57;;;;;;;3.93;3.23;;;;;;;;;;10336174;28;20036;-62
2021/09/18 05:36:54;;;;;;;3.70;3.07;;;;;;;;;;10309962;28;20120;-63
2021/09/18 05:41:52;;;;;;;5.00;3.80;;;;;;;;;;10278818;28;20125;-62
2021/09/18 05:51:48;;;;;;;3.95;3.33;;;;;;;;;;10333701;28;20048;-56
2021/09/18 05:56:45;;;;;;;0.53;0.43;;;;;;;;;;10345760;28;20035;-58
2021/09/18 06:01:43;;;;;;;0.40;0.40;;;;;;;;;;10354008;28;20078;-58
2021/09/18 06:06:40;;;;;;;0.40;0.20;;;;;;;;;;10329455;28;20070;-58
2021/09/18 06:11:38;;;;;;;1.50;0.57;;;;;;;;;;10342391;28;20225;-57
2021/09/18 06:16:35;;;;;;;0.40;0.40;;;;;;;;;;10354492;28;20116;-57
2021/09/18 06:21:33;;;;;;;0.50;0.50;;;;;;;;;;10328160;28;20040;-58
2021/09/18 06:26:30;;;;;;;0.70;0.50;;;;;;;;;;10350665;28;20017;-58
2021/09/18 06:31:27;;;;;;;0.50;0.50;;;;;;;;;;10360806;28;20028;-55
2021/09/18 06:36:25;;;;;;;0.20;0.20;;;;;;;;;;10361516;28;20037;-58
2021/09/18 06:41:22;;;;;;;0.50;0.50;;;;;;;;;;10355645;28;20035;-58
2021/09/18 06:46:20;;;;;;;0.57;0.57;;;;;;;;;;10361154;28;20064;-58
2021/09/18 06:51:17;;;;;;;0.50;0.50;;;;;;;;;;10354516;28;20111;-59
2021/09/18 06:56:15;;;;;;;8.83;0.67;;;;;;;;;;10357905;28;20029;-59
2021/09/18 07:01:12;;;;;;;1.90;0.63;;;;;;;;;;10352799;28;20544;-58
2021/09/18 07:06:09;;;;;;;0.93;0.93;;;;;;;;;;10359907;28;20036;-59
2021/09/18 07:11:07;;;;;;;1.10;0.63;;;;;;;;;;10354662;28;20062;-59
2021/09/18 07:16:04;;;;;;;0.67;0.60;;;;;;;;;;10354440;28;20122;-58
2021/09/18 07:21:02;;;;;;;0.90;0.60;;;;;;;;;;10350512;28;20052;-58
2021/09/18 07:25:59;;;;;;;1.87;0.87;;;;;;;;;;10360637;28;20062;-58
2021/09/18 07:30:57;;;;;;;3.57;1.30;;;;;;;;;;10344215;28;20036;-59
2021/09/18 07:35:54;;;;;;;2.90;0.90;;;;;;;;;;10373671;28;20157;-58
2021/09/18 07:40:55;;;;;;;1.53;0.80;;;;;;;;;;10357764;28;20032;-59
2021/09/18 07:45:52;;;;;;;1.65;0.82;;;;;;;;;;10360610;28;20090;-58
2021/09/18 07:50:50;;;;;;;1.33;0.77;;;;;;;;;;10357615;28;20041;-59
2021/09/18 07:55:47;;;;;;;0.90;0.60;;;;;;;;;;10357223;28;20554;-58
2021/09/18 08:00:45;;;;;;;0.73;0.73;;;;;;;;;;10357355;28;20033;-61
2021/09/18 08:05:43;;;;;;;0.40;0.40;;;;;;;;;;10367472;28;20103;-61
2021/09/18 08:10:40;;;;;;;0.70;0.40;;;;;;;;;;10351466;28;20115;-61
2021/09/18 08:15:38;;;;;;;0.63;0.50;;;;;;;;;;10357584;28;20033;-61
2021/09/18 08:20:35;;;;;;;2.00;0.67;;;;;;;;;;10347496;28;20040;-59
2021/09/18 08:25:33;;;;;;;0.10;0.10;;;;;;;;;;10347053;28;20041;-63
2021/09/18 08:30:30;;;;;;;1.73;0.30;;;;;;;;;;10360237;28;20055;-61
2021/09/18 08:35:28;;;;;;;0.70;0.60;;;;;;;;;;10361108;28;20070;-61
2021/09/18 08:40:26;;;;;;;0.40;0.40;;;;;;;;;;10391020;28;20044;-63
2021/09/18 08:45:24;;;;;;;;;;;;;;;;;;10380573;28;20044;-61
2021/09/18 08:50:21;;;;;;;0.68;0.57;;;;;;;;;;10349045;28;19920;-61
2021/09/18 08:55:19;;;;;;;0.60;0.60;;;;;;;;;;10361951;28;20035;-62
2021/09/18 09:00:34;;;;;;;0.73;0.50;;;;;;;;;;10360283;28;20325;-62
2021/09/18 09:05:37;;;;;;;0.70;0.60;;;;;;;;;;10359162;28;20430;-62
2021/09/18 09:10:34;;;;;;;0.45;0.45;;;;;;;;;;10351793;28;20033;-62
2021/09/18 09:15:32;;;;;;;0.50;0.50;;;;;;;;;;10378539;28;20051;-62
2021/09/18 09:20:29;;;;;;;0.40;0.40;;;;;;;;;;10372789;28;20392;-63
2021/09/18 09:25:34;;;;;;;1.13;1.03;;;;;;;;;;10373372;28;20032;-62
2021/09/18 09:30:33;;;;;;;0.28;0.28;;;;;;;;;;10354385;28;20045;-64
2021/09/18 09:35:31;;;;;;;0.90;0.47;;;;;;;;;;10372550;28;20525;-63
2021/09/18 09:40:36;;;;;;;0.20;0.20;;;;;;;;;;10377726;28;20383;-62
2021/09/18 09:45:35;;;;;;;1.02;0.60;;;;;;;;;;10365208;28;20032;-60
2021/09/18 09:50:33;;;;;;;0.70;0.45;;;;;;;;;;10377084;28;20402;-61
2021/09/18 09:55:31;;;;;;;;;;;;;;;;;;10367621;28;20051;-59
2021/09/18 10:00:50;;;;;;;0.38;0.30;;;;;;;;;;10370466;28;20008;-63
2021/09/18 10:05:48;;;;;;;0.30;0.30;;;;;;;;;;10356155;28;20040;-61
2021/09/18 10:10:46;;;;;;;0.05;0.05;;;;;;;;;;10353139;28;20471;-65
2021/09/18 10:15:44;;;;;;;0.85;0.50;;;;;;;;;;10362123;28;20124;-65
2021/09/18 10:25:49;;;;;;;0.98;0.68;;;;;;;;;;10364151;28;20472;-59
2021/09/18 10:30:54;;;;;;;0.60;0.40;;;;;;;;;;10369081;28;20577;-60
2021/09/18 10:35:57;;;;;;;0.30;0.30;;;;;;;;;;10367668;28;20045;-62
2021/09/18 10:40:59;;;;;;;0.20;0.20;;;;;;;;;;10360939;28;20070;-64
2021/09/18 10:45:57;;;;;;;0.73;0.45;;;;;;;;;;10373094;28;20125;-62
2021/09/18 10:50:54;;;;;;;0.15;0.15;;;;;;;;;;10357188;28;20068;-60
2021/09/18 10:56:01;;;;;;;0.67;0.50;;;;;;;;;;10365840;28;20070;-62
2021/09/18 11:01:00;;;;;;;1.65;0.68;;;;;;;;;;10347621;28;20287;-61
2021/09/18 11:05:58;;;;;;;0.63;0.25;;;;;;;;;;10360262;28;20052;-62
2021/09/18 11:10:57;;;;;;;0.35;0.30;;;;;;;;;;10354559;28;20041;-63
2021/09/18 11:15:55;;;;;;;0.40;0.10;;;;;;;;;;10356528;28;20380;-62
2021/09/18 11:21:07;;;;;;;0.20;0.20;;;;;;;;;;10325788;28;20131;-64
2021/09/18 11:26:23;;;;;;;0.20;0.10;;;;;;;;;;10349649;28;20414;-63
2021/09/18 11:31:21;;;;;;;0.22;0.22;;;;;;;;;;10358495;28;20039;-62
2021/09/18 11:36:19;;;;;;;0.20;0.20;;;;;;;;;;10356818;28;20467;-60
2021/09/18 11:41:20;;;;;;;0.70;0.20;;;;;;;;;;10385541;28;20028;-59
2021/09/18 11:46:24;;;;;;;0.10;0.10;;;;;;;;;;10361478;28;20072;-60
2021/09/18 11:51:21;;;;;;;1.17;0.38;;;;;;;;;;10534386;22;20339;-68
2021/09/18 11:56:20;;;;;;;0.10;0.10;;;;;;;;;;10389627;28;20032;-66
2021/09/18 12:01:17;;;;;;;0.90;0.65;;;;;;;;;;10402919;28;20123;-66
2021/09/18 12:06:15;;;;;;;0.67;0.50;;;;;;;;;;10370316;28;20095;-66
2021/09/18 12:11:12;;;;;;;;;;;;;;;;;;10374614;28;20063;-67
2021/09/18 12:16:11;;;;;;;0.33;0.20;;;;;;;;;;10393263;28;19996;-66
2021/09/18 12:21:29;;;;;;;0.13;0.13;;;;;;;;;;10365620;28;20052;-67
2021/09/18 12:26:30;;;;;;;1.02;0.30;;;;;;;;;;10397827;28;20040;-66
2021/09/18 12:31:28;;;;;;;0.50;0.47;;;;;;;;;;10363937;28;20480;-66
2021/09/18 12:36:25;;;;;;;;;;;;;;;;;;10412536;28;20036;-66
2021/09/18 12:41:24;;;;;;;0.30;0.20;;;;;;;;;;10408953;28;20401;-64
2021/09/18 12:46:22;;;;;;;1.15;0.20;;;;;;;;;;10390206;28;20040;-66
2021/09/18 12:51:19;;;;;;;;;;;;;;;;;;10391472;28;20032;-65
2021/09/18 12:56:30;;;;;;;1.80;0.30;;;;;;;;;;10369457;28;20358;-66
2021/09/18 13:01:38;;;;;;;0.25;0.25;;;;;;;;;;10374499;28;20085;-66
2021/09/18 13:06:37;;;;;;;0.10;0.10;;;;;;;;;;10400317;28;20040;-64
2021/09/18 13:11:36;;;;;;;0.68;0.63;;;;;;;;;;10382450;28;20519;-65
2021/09/18 13:16:33;;;;;;;1.30;0.47;;;;;;;;;;10389885;28;20060;-66
2021/09/18 13:21:31;;;;;;;;;;;;;;;;;;10392428;28;20063;-67
2021/09/18 13:26:29;;;;;;;0.55;0.40;;;;;;;;;;10411193;28;19908;-65
2021/09/18 13:31:26;;;;;;;;;;;;;;;;;;10361293;28;20036;-66
2021/09/18 13:36:23;;;;;;;0.28;0.15;;;;;;;;;;10371204;28;20441;-63
2021/09/18 13:41:21;;;;;;;;;;;;;;;;;;10407272;28;20124;-65
2021/09/18 13:46:18;;;;;;;0.10;0.10;;;;;;;;;;10409817;28;19912;-63
2021/09/18 13:51:15;;;;;;;;;;;;;;;;;;10416329;28;20128;-66
2021/09/18 13:56:13;;;;;;;0.20;0.10;;;;;;;;;;10372369;28;20293;-67
2021/09/18 14:01:11;;;;;;;0.30;0.30;;;;;;;;;;10401746;28;20040;-66
2021/09/18 14:06:08;;;;;;;0.30;0.30;;;;;;;;;;10404973;28;20310;-66
2021/09/18 14:11:06;;;;;;;;;;;;;;;;;;10380881;28;20044;-68
2021/09/18 14:16:03;;;;;;;0.20;0.20;;;;;;;;;;10402300;28;19919;-65
2021/09/18 14:21:01;;;;;;;;;;;;;;;;;;10383859;28;20048;-64
2021/09/18 14:25:58;;;;;;;0.10;0.10;;;;;;;;;;10402212;28;19919;-66
2021/09/18 14:30:56;;;;;;;;;;;;;;;;;;10387824;28;20080;-66
2021/09/18 14:35:54;;;;;;;1.00;0.55;;;;;;;;;;10369483;28;19912;-66
2021/09/18 14:40:52;;;;;;;1.13;0.20;;;;;;;;;;10374994;28;20493;-67
2021/09/18 14:45:49;;;;;;;0.38;0.25;;;;;;;;;;10375907;28;20040;-66
2021/09/18 14:50:46;;;;;;;0.23;0.17;;;;;;;;;;10376025;28;20031;-66
2021/09/18 14:55:44;;;;;;;0.00;0.00;;;;;;;;;;10376610;28;20028;-70
2021/09/18 15:00:41;;;;;;;0.15;0.15;;;;;;;;;;10393071;28;20043;-66
2021/09/18 15:05:39;;;;;;;0.20;0.20;;;;;;;;;;10376233;28;20037;-65
2021/09/18 15:10:37;;;;;;;0.10;0.10;;;;;;;;;;10389647;28;20554;-67
2021/09/18 15:15:34;;;;;;;;;;;;;;;;;;10396334;28;20028;-66
2021/09/18 15:20:32;;;;;;;0.13;0.13;;;;;;;;;;10395390;28;19920;-66
2021/09/18 15:25:30;;;;;;;0.95;0.35;;;;;;;;;;10381265;28;20028;-70
2021/09/18 15:30:28;;;;;;;0.80;0.40;;;;;;;;;;10391142;28;20036;-65
2021/09/18 15:35:25;;;;;;;0.30;0.30;;;;;;;;;;10365293;28;20725;-65
2021/09/18 15:40:23;;;;;;;0.40;0.40;;;;;;;;;;10375706;28;20056;-69
2021/09/18 15:45:21;;;;;;;1.73;0.50;;;;;;;;;;10397099;28;20040;-67
2021/09/18 15:50:18;;;;;;;0.23;0.23;;;;;;;;;;10395671;28;20032;-66
2021/09/18 15:55:15;;;;;;;0.93;0.23;;;;;;;;;;10388570;28;20043;-64
2021/09/18 16:00:13;;;;;;;0.67;0.30;;;;;;;;;;10409383;28;20032;-66
2021/09/18 16:05:10;;;;;;;1.70;0.63;;;;;;;;;;10376345;28;20044;-66
2021/09/18 16:10:08;;;;;;;0.20;0.10;;;;;;;;;;10394835;28;20040;-68
2021/09/18 16:15:11;;;;;;;0.20;0.20;;;;;;;;;;10373152;28;20093;-66
2021/09/18 16:20:11;;;;;;;2.75;0.57;;;;;;;;;;10403462;28;20517;-68
2021/09/18 16:25:09;;;;;;;0.20;0.20;;;;;;;;;;10410199;28;20032;-65
2021/09/18 16:30:07;;;;;;;;;;;;;;;;;;10394585;28;20267;-65
2021/09/18 16:35:04;;;;;;;0.52;0.52;;;;;;;;;;10398583;28;19912;-68
2021/09/18 16:40:03;;;;;;;0.10;0.10;;;;;;;;;;10402293;28;21487;-65
2021/09/18 16:45:00;;;;;;;0.10;0.10;;;;;;;;;;10394217;28;20389;-67
2021/09/18 16:49:58;;;;;;;0.47;0.47;;;;;;;;;;10380431;28;20494;-65
2021/09/18 16:54:55;;;;;;;0.13;0.13;;;;;;;;;;10385221;28;20401;-66
2021/09/18 16:59:53;;;;;;;0.30;0.30;;;;;;;;;;10384876;28;20520;-66
2021/09/18 17:04:50;;;;;;;1.00;0.50;;;;;;;;;;10404128;28;20039;-66
2021/09/18 17:09:48;;;;;;;1.03;0.30;;;;;;;;;;10396962;28;20406;-66
2021/09/18 17:14:45;;;;;;;0.87;0.87;;;;;;;;;;10382899;28;20348;-66
2021/09/18 17:19:42;;;;;;;1.10;0.70;;;;;;;;;;10403467;28;20043;-69
2021/09/18 17:24:40;;;;;;;0.93;0.70;;;;;;;;;;10397045;28;20391;-67
2021/09/18 17:29:37;;;;;;;0.77;0.70;;;;;;;;;;10387102;28;20048;-64
2021/09/18 17:34:35;;;;;;;0.30;0.30;;;;;;;;;;10402029;28;20032;-68
2021/09/18 17:39:34;;;;;;;0.50;0.50;;;;;;;;;;10377107;28;20097;-67
2021/09/18 17:44:32;;;;;;;3.13;0.38;;;;;;;;;;10394709;28;20104;-66
2021/09/18 17:49:29;;;;;;;0.50;0.37;;;;;;;;;;10398641;28;20126;-66
2021/09/18 17:54:26;;;;;;;0.43;0.27;;;;;;;;;;10375612;28;20429;-65
2021/09/18 17:59:24;;;;;;;0.57;0.57;;;;;;;;;;10392192;28;20512;-67
2021/09/18 18:04:22;;;;;;;0.70;0.30;;;;;;;;;;10400411;28;20109;-67
2021/09/18 18:09:19;;;;;;;;;;;;;;;;;;10368901;28;20040;-66
2021/09/18 18:14:17;;;;;;;0.22;0.22;;;;;;;;;;10385981;28;20995;-66
2021/09/18 18:19:16;;;;;;;0.60;0.57;;;;;;;;;;10363278;28;20410;-67
2021/09/18 18:24:14;;;;;;;0.65;0.55;;;;;;;;;;10395725;28;20035;-65
2021/09/18 18:29:11;;;;;;;0.83;0.30;;;;;;;;;;10376146;28;20131;-65
2021/09/18 18:34:09;;;;;;;0.30;0.30;;;;;;;;;;10380074;28;20040;-68
2021/09/18 18:39:06;;;;;;;0.30;0.20;;;;;;;;;;10353235;28;20127;-65
2021/09/18 18:44:04;;;;;;;0.20;0.20;;;;;;;;;;10388327;28;20029;-65
2021/09/18 18:49:02;;;;;;;0.88;0.40;;;;;;;;;;10401010;28;20048;-65
2021/09/18 18:53:59;;;;;;;0.43;0.43;;;;;;;;;;10397103;28;20035;-64
2021/09/18 18:58:57;;;;;;;4.00;0.73;;;;;;;;;;10393378;28;20036;-66
2021/09/18 19:03:54;;;;;;;1.70;0.53;;;;;;;;;;10394081;28;20037;-66
2021/09/18 19:08:52;;;;;;;;;;;;;;;;;;10366510;28;20044;-67
2021/09/18 19:13:50;;;;;;;3.38;0.65;;;;;;;;;;10389565;28;19920;-67
2021/09/18 19:18:48;;;;;;;0.32;0.30;;;;;;;;;;10386797;28;20524;-65
2021/09/18 19:23:46;;;;;;;0.47;0.47;;;;;;;;;;10398062;28;20047;-65
2021/09/18 19:28:45;;;;;;;2.65;1.13;;;;;;;;;;10396097;28;20043;-67
2021/09/18 19:33:42;;;;;;;1.05;0.63;;;;;;;;;;10398067;28;20541;-67
2021/09/18 19:38:41;;;;;;;0.50;0.50;;;;;;;;;;10403157;28;20040;-66
2021/09/18 19:43:39;;;;;;;2.70;0.70;;;;;;;;;;10387060;28;20489;-66
2021/09/18 19:48:37;;;;;;;0.73;0.50;;;;;;;;;;10382005;28;20043;-67
2021/09/18 19:53:34;;;;;;;;;;;;;;;;;;10363207;28;20302;-66
2021/09/18 19:58:38;;;;;;;0.90;0.60;;;;;;;;;;10387170;28;19999;-66
2021/09/18 20:03:36;;;;;;;0.50;0.50;;;;;;;;;;10387449;28;20036;-64
2021/09/18 20:08:33;;;;;;;1.10;1.00;;;;;;;;;;10397512;28;20890;-67
2021/09/18 20:13:31;;;;;;;1.77;1.30;;;;;;;;;;10408693;28;20033;-67
2021/09/18 20:18:28;;;;;;;2.87;1.23;;;;;;;;;;10401637;28;20017;-66
2021/09/18 20:23:25;;;;;;;2.90;1.20;;;;;;;;;;10403947;28;20474;-65
2021/09/18 20:28:23;;;;;;;2.30;1.10;;;;;;;;;;10401867;28;20020;-67
2021/09/18 20:33:20;;;;;;;3.37;0.80;;;;;;;;;;10392792;28;20107;-68
2021/09/18 20:38:18;;;;;;;4.83;2.27;;;;;;;;;;10367173;28;20020;-66
2021/09/18 20:43:16;;;;;;;5.20;3.70;;;;;;;;;;10385728;28;20082;-67
2021/09/18 20:48:14;;;;;;;;;;;;;;;;;;10390587;28;20074;-67
2021/09/18 20:53:12;;;;;;;6.80;3.45;;;;;;;;;;10375813;28;19916;-67
2021/09/18 20:58:10;;;;;;;7.93;2.77;;;;;;;;;;10380739;28;20033;-67
2021/09/18 21:08:24;;;;;;;10.23;3.50;;;;;;;;;;10385058;28;20043;-66
2021/09/18 21:13:22;;;;;;;5.82;3.35;;;;;;;;;;10386852;28;20489;-66
2021/09/18 21:18:19;;;;;;;3.50;2.70;;;;;;;;;;10395491;28;20046;-67
2021/09/18 21:23:17;;;;;;;5.27;3.30;;;;;;;;;;10404855;28;20016;-66
2021/09/18 21:28:15;;;;;;;5.45;2.92;;;;;;;;;;10383838;28;20036;-66
2021/09/18 21:33:13;;;;;;;5.97;1.60;;;;;;;;;;10392544;28;20021;-69
2021/09/18 21:38:10;;;;;;;9.00;3.73;;;;;;;;;;10369739;28;20027;-68
2021/09/18 21:43:08;;;;;;;7.90;2.93;;;;;;;;;;10394035;28;20473;-67
2021/09/18 21:48:05;;;;;;;3.70;2.50;;;;;;;;;;10374401;28;20090;-67
2021/09/18 21:53:03;;;;;;;2.97;2.53;;;;;;;;;;10388956;28;20042;-67
2021/09/18 21:58:00;;;;;;;4.87;3.10;;;;;;;;;;10394703;28;20086;-66
2021/09/18 22:02:58;;;;;;;1.60;1.50;;;;;;;;;;10401136;28;20543;-66
2021/09/18 22:07:56;;;;;;;7.75;3.55;;;;;;;;;;10401222;28;20464;-68
2021/09/18 22:12:53;;;;;;;3.87;3.07;;;;;;;;;;10363076;28;20032;-66
2021/09/18 22:17:51;;;;;;;7.60;3.07;;;;;;;;;;10368051;28;20502;-67
2021/09/18 22:22:49;;;;;;;5.93;2.97;;;;;;;;;;10405909;28;20024;-67
2021/09/18 22:27:46;;;;;;;1.92;1.27;;;;;;;;;;10397179;28;20559;-67
2021/09/18 22:32:46;;;;;;;5.53;3.03;;;;;;;;;;10394468;28;20032;-68
2021/09/18 22:37:44;;;;;;;6.28;3.17;;;;;;;;;;10395960;28;20047;-69
2021/09/18 22:42:41;;;;;;;5.00;3.30;;;;;;;;;;10368456;28;20040;-68
2021/09/18 22:47:38;;;;;;;5.37;1.73;;;;;;;;;;10405818;28;20033;-67
2021/09/18 22:52:36;;;;;;;6.87;2.97;;;;;;;;;;10395185;28;20040;-68
2021/09/18 22:57:33;;;;;;;5.90;3.17;;;;;;;;;;10381990;28;20104;-67
2021/09/18 23:02:31;;;;;;;3.87;2.40;;;;;;;;;;10403076;28;20043;-67
2021/09/18 23:07:28;;;;;;;5.90;3.77;;;;;;;;;;10375873;28;20478;-66
2021/09/18 23:12:26;;;;;;;5.47;3.83;;;;;;;;;;10388816;28;20497;-67
2021/09/18 23:17:24;;;;;;;7.00;2.22;;;;;;;;;;10394790;28;20052;-65
2021/09/18 23:22:21;;;;;;;5.07;3.50;;;;;;;;;;10369768;28;20025;-65
2021/09/18 23:27:19;;;;;;;4.90;3.43;;;;;;;;;;10373626;28;20029;-66
2021/09/18 23:32:16;;;;;;;5.57;3.20;;;;;;;;;;10400920;28;20044;-67
2021/09/18 23:37:13;;;;;;;5.30;2.97;;;;;;;;;;10404467;28;20126;-67
2021/09/18 23:42:11;;;;;;;5.33;2.67;;;;;;;;;;10390177;28;20037;-68
2021/09/18 23:47:09;;;;;;;3.23;2.33;;;;;;;;;;10389775;28;20058;-65
2021/09/18 23:52:06;;;;;;;4.73;2.60;;;;;;;;;;10376875;28;20418;-66
2021/09/18 23:57:03;;;;;;;4.47;2.90;;;;;;;;;;10369408;28;20503;-66
